sensor_id;sensor_type;location;lat;lon;timestamp;P1;durP1;ratioP1;P2;durP2;ratioP2
47053;SDS011;32811;52.382;5.270;2023-05-07T00:00:18;15.13;;;12.02;;
47053;SDS011;32811;52.382;5.270;2023-05-07T00:02:45;17.63;;;11.40;;
47053;SDS011;32811;52.382;5.270;2023-05-07T00:05:12;11.38;;;10.27;;
47053;SDS011;32811;52.382;5.270;2023-05-07T00:07:40;14.25;;;11.48;;
47053;SDS011;32811;52.382;5.270;2023-05-07T00:10:07;10.35;;;9.45;;
47053;SDS011;32811;52.382;5.270;2023-05-07T00:12:34;11.57;;;10.35;;
47053;SDS011;32811;52.382;5.270;2023-05-07T00:15:04;11.35;;;10.18;;
47053;SDS011;32811;52.382;5.270;2023-05-07T00:17:32;14.18;;;9.77;;
47053;SDS011;32811;52.382;5.270;2023-05-07T00:19:59;10.75;;;8.98;;
47053;SDS011;32811;52.382;5.270;2023-05-07T00:22:26;12.30;;;8.90;;
47053;SDS011;32811;52.382;5.270;2023-05-07T00:24:52;9.48;;;8.55;;
47053;SDS011;32811;52.382;5.270;2023-05-07T00:27:19;9.07;;;8.18;;
47053;SDS011;32811;52.382;5.270;2023-05-07T00:29:46;9.65;;;8.13;;
47053;SDS011;32811;52.382;5.270;2023-05-07T00:32:12;14.40;;;8.15;;
47053;SDS011;32811;52.382;5.270;2023-05-07T00:34:39;11.10;;;7.75;;
47053;SDS011;32811;52.382;5.270;2023-05-07T00:37:06;12.43;;;7.88;;
47053;SDS011;32811;52.382;5.270;2023-05-07T00:39:35;9.27;;;7.10;;
47053;SDS011;32811;52.382;5.270;2023-05-07T00:42:02;7.68;;;6.63;;
47053;SDS011;32811;52.382;5.270;2023-05-07T00:44:30;10.88;;;6.63;;
47053;SDS011;32811;52.382;5.270;2023-05-07T00:46:57;9.50;;;6.30;;
47053;SDS011;32811;52.382;5.270;2023-05-07T00:49:31;9.23;;;6.45;;
47053;SDS011;32811;52.382;5.270;2023-05-07T00:52:07;5.78;;;5.22;;
47053;SDS011;32811;52.382;5.270;2023-05-07T00:54:37;7.03;;;5.18;;
47053;SDS011;32811;52.382;5.270;2023-05-07T00:57:03;6.28;;;5.05;;
47053;SDS011;32811;52.382;5.270;2023-05-07T00:59:31;5.43;;;4.95;;
47053;SDS011;32811;52.382;5.270;2023-05-07T01:01:58;6.88;;;5.25;;
47053;SDS011;32811;52.382;5.270;2023-05-07T01:04:25;5.68;;;4.25;;
47053;SDS011;32811;52.382;5.270;2023-05-07T01:06:56;4.60;;;4.22;;
47053;SDS011;32811;52.382;5.270;2023-05-07T01:09:25;6.75;;;4.63;;
47053;SDS011;32811;52.382;5.270;2023-05-07T01:11:53;4.55;;;4.15;;
47053;SDS011;32811;52.382;5.270;2023-05-07T01:14:21;5.97;;;4.05;;
47053;SDS011;32811;52.382;5.270;2023-05-07T01:16:48;5.78;;;4.20;;
47053;SDS011;32811;52.382;5.270;2023-05-07T01:19:17;4.95;;;4.50;;
47053;SDS011;32811;52.382;5.270;2023-05-07T01:21:45;4.93;;;4.50;;
47053;SDS011;32811;52.382;5.270;2023-05-07T01:24:14;4.75;;;4.28;;
47053;SDS011;32811;52.382;5.270;2023-05-07T01:26:42;5.82;;;5.22;;
47053;SDS011;32811;52.382;5.270;2023-05-07T01:29:10;5.68;;;3.40;;
47053;SDS011;32811;52.382;5.270;2023-05-07T01:31:37;5.32;;;3.88;;
47053;SDS011;32811;52.382;5.270;2023-05-07T01:34:06;7.07;;;4.30;;
47053;SDS011;32811;52.382;5.270;2023-05-07T01:36:48;5.05;;;3.90;;
47053;SDS011;32811;52.382;5.270;2023-05-07T01:39:17;4.65;;;3.95;;
47053;SDS011;32811;52.382;5.270;2023-05-07T01:41:48;5.43;;;4.50;;
47053;SDS011;32811;52.382;5.270;2023-05-07T01:44:16;4.53;;;3.83;;
47053;SDS011;32811;52.382;5.270;2023-05-07T01:46:47;5.13;;;4.10;;
47053;SDS011;32811;52.382;5.270;2023-05-07T01:49:17;7.20;;;4.25;;
47053;SDS011;32811;52.382;5.270;2023-05-07T01:51:55;4.45;;;3.83;;
47053;SDS011;32811;52.382;5.270;2023-05-07T01:57:00;4.57;;;3.60;;
47053;SDS011;32811;52.382;5.270;2023-05-07T02:01:59;3.20;;;2.92;;
47053;SDS011;32811;52.382;5.270;2023-05-07T02:04:29;4.97;;;3.13;;
47053;SDS011;32811;52.382;5.270;2023-05-07T02:06:58;5.40;;;3.83;;
47053;SDS011;32811;52.382;5.270;2023-05-07T02:09:33;5.88;;;3.72;;
47053;SDS011;32811;52.382;5.270;2023-05-07T02:11:59;7.47;;;3.88;;
47053;SDS011;32811;52.382;5.270;2023-05-07T02:14:33;3.70;;;2.95;;
47053;SDS011;32811;52.382;5.270;2023-05-07T02:17:00;6.93;;;3.22;;
47053;SDS011;32811;52.382;5.270;2023-05-07T02:19:30;3.45;;;2.92;;
47053;SDS011;32811;52.382;5.270;2023-05-07T02:21:58;4.85;;;2.85;;
47053;SDS011;32811;52.382;5.270;2023-05-07T02:24:25;4.07;;;3.78;;
47053;SDS011;32811;52.382;5.270;2023-05-07T02:26:54;3.30;;;2.95;;
47053;SDS011;32811;52.382;5.270;2023-05-07T02:29:27;3.90;;;3.35;;
47053;SDS011;32811;52.382;5.270;2023-05-07T02:31:53;3.40;;;3.10;;
47053;SDS011;32811;52.382;5.270;2023-05-07T02:34:21;5.32;;;3.13;;
47053;SDS011;32811;52.382;5.270;2023-05-07T02:36:50;4.05;;;3.25;;
47053;SDS011;32811;52.382;5.270;2023-05-07T02:39:17;4.45;;;3.45;;
47053;SDS011;32811;52.382;5.270;2023-05-07T02:41:50;3.67;;;2.95;;
47053;SDS011;32811;52.382;5.270;2023-05-07T02:44:16;3.25;;;2.95;;
47053;SDS011;32811;52.382;5.270;2023-05-07T02:46:43;3.38;;;3.05;;
47053;SDS011;32811;52.382;5.270;2023-05-07T02:49:10;5.45;;;3.72;;
47053;SDS011;32811;52.382;5.270;2023-05-07T02:51:36;2.50;;;2.30;;
47053;SDS011;32811;52.382;5.270;2023-05-07T02:54:03;5.05;;;3.83;;
47053;SDS011;32811;52.382;5.270;2023-05-07T02:56:30;3.50;;;3.20;;
47053;SDS011;32811;52.382;5.270;2023-05-07T02:58:59;4.60;;;3.40;;
47053;SDS011;32811;52.382;5.270;2023-05-07T03:01:25;5.63;;;3.60;;
47053;SDS011;32811;52.382;5.270;2023-05-07T03:03:53;5.00;;;3.75;;
47053;SDS011;32811;52.382;5.270;2023-05-07T03:06:20;5.53;;;2.88;;
47053;SDS011;32811;52.382;5.270;2023-05-07T03:08:47;3.92;;;3.55;;
47053;SDS011;32811;52.382;5.270;2023-05-07T03:11:14;5.05;;;3.35;;
47053;SDS011;32811;52.382;5.270;2023-05-07T03:13:43;4.00;;;3.70;;
47053;SDS011;32811;52.382;5.270;2023-05-07T03:16:10;4.15;;;3.80;;
47053;SDS011;32811;52.382;5.270;2023-05-07T03:18:37;4.93;;;3.72;;
47053;SDS011;32811;52.382;5.270;2023-05-07T03:21:03;5.82;;;3.65;;
47053;SDS011;32811;52.382;5.270;2023-05-07T03:23:30;4.25;;;2.97;;
47053;SDS011;32811;52.382;5.270;2023-05-07T03:25:57;6.13;;;3.88;;
47053;SDS011;32811;52.382;5.270;2023-05-07T03:28:23;4.47;;;4.03;;
47053;SDS011;32811;52.382;5.270;2023-05-07T03:30:50;6.78;;;4.47;;
47053;SDS011;32811;52.382;5.270;2023-05-07T03:33:17;9.27;;;4.22;;
47053;SDS011;32811;52.382;5.270;2023-05-07T03:35:43;3.80;;;3.42;;
47053;SDS011;32811;52.382;5.270;2023-05-07T03:38:10;5.43;;;3.28;;
47053;SDS011;32811;52.382;5.270;2023-05-07T03:40:37;4.00;;;3.38;;
47053;SDS011;32811;52.382;5.270;2023-05-07T03:43:04;5.40;;;4.15;;
47053;SDS011;32811;52.382;5.270;2023-05-07T03:45:30;4.38;;;3.35;;
47053;SDS011;32811;52.382;5.270;2023-05-07T03:47:57;5.47;;;3.25;;
47053;SDS011;32811;52.382;5.270;2023-05-07T03:50:28;4.88;;;4.40;;
47053;SDS011;32811;52.382;5.270;2023-05-07T03:52:54;4.20;;;3.80;;
47053;SDS011;32811;52.382;5.270;2023-05-07T03:55:21;6.97;;;4.15;;
47053;SDS011;32811;52.382;5.270;2023-05-07T03:57:48;5.30;;;3.42;;
47053;SDS011;32811;52.382;5.270;2023-05-07T04:00:15;3.50;;;3.08;;
47053;SDS011;32811;52.382;5.270;2023-05-07T04:02:41;4.13;;;3.25;;
47053;SDS011;32811;52.382;5.270;2023-05-07T04:05:08;4.53;;;4.03;;
47053;SDS011;32811;52.382;5.270;2023-05-07T04:07:35;5.22;;;3.80;;
47053;SDS011;32811;52.382;5.270;2023-05-07T04:10:04;4.45;;;4.05;;
47053;SDS011;32811;52.382;5.270;2023-05-07T04:12:31;5.65;;;4.47;;
47053;SDS011;32811;52.382;5.270;2023-05-07T04:14:58;4.28;;;3.55;;
47053;SDS011;32811;52.382;5.270;2023-05-07T04:17:24;8.13;;;3.90;;
47053;SDS011;32811;52.382;5.270;2023-05-07T04:19:51;7.35;;;4.20;;
47053;SDS011;32811;52.382;5.270;2023-05-07T04:22:17;7.93;;;5.18;;
47053;SDS011;32811;52.382;5.270;2023-05-07T04:24:44;9.18;;;4.45;;
47053;SDS011;32811;52.382;5.270;2023-05-07T04:27:11;7.43;;;4.70;;
47053;SDS011;32811;52.382;5.270;2023-05-07T04:29:38;5.45;;;4.82;;
47053;SDS011;32811;52.382;5.270;2023-05-07T04:32:09;8.00;;;4.82;;
47053;SDS011;32811;52.382;5.270;2023-05-07T04:34:36;6.47;;;5.88;;
47053;SDS011;32811;52.382;5.270;2023-05-07T04:37:02;10.65;;;5.40;;
47053;SDS011;32811;52.382;5.270;2023-05-07T04:39:29;8.50;;;5.00;;
47053;SDS011;32811;52.382;5.270;2023-05-07T04:41:55;7.18;;;5.95;;
47053;SDS011;32811;52.382;5.270;2023-05-07T04:44:22;7.28;;;5.15;;
47053;SDS011;32811;52.382;5.270;2023-05-07T04:46:48;6.78;;;5.35;;
47053;SDS011;32811;52.382;5.270;2023-05-07T04:49:15;8.07;;;5.55;;
47053;SDS011;32811;52.382;5.270;2023-05-07T04:51:42;9.55;;;6.00;;
47053;SDS011;32811;52.382;5.270;2023-05-07T04:54:10;6.97;;;5.85;;
47053;SDS011;32811;52.382;5.270;2023-05-07T04:56:36;7.50;;;6.63;;
47053;SDS011;32811;52.382;5.270;2023-05-07T04:59:03;9.55;;;6.35;;
47053;SDS011;32811;52.382;5.270;2023-05-07T05:01:30;8.85;;;6.50;;
47053;SDS011;32811;52.382;5.270;2023-05-07T05:03:56;7.30;;;6.57;;
47053;SDS011;32811;52.382;5.270;2023-05-07T05:06:23;7.75;;;6.20;;
47053;SDS011;32811;52.382;5.270;2023-05-07T05:08:50;8.90;;;6.68;;
47053;SDS011;32811;52.382;5.270;2023-05-07T05:11:16;7.93;;;6.63;;
47053;SDS011;32811;52.382;5.270;2023-05-07T05:13:43;11.77;;;6.80;;
47053;SDS011;32811;52.382;5.270;2023-05-07T05:16:09;9.95;;;7.10;;
47053;SDS011;32811;52.382;5.270;2023-05-07T05:18:36;9.40;;;7.25;;
47053;SDS011;32811;52.382;5.270;2023-05-07T05:21:04;8.50;;;7.57;;
47053;SDS011;32811;52.382;5.270;2023-05-07T05:23:30;10.13;;;7.32;;
47053;SDS011;32811;52.382;5.270;2023-05-07T05:25:57;14.13;;;7.80;;
47053;SDS011;32811;52.382;5.270;2023-05-07T05:28:24;9.02;;;7.47;;
47053;SDS011;32811;52.382;5.270;2023-05-07T05:30:51;10.85;;;8.15;;
47053;SDS011;32811;52.382;5.270;2023-05-07T05:33:18;11.43;;;10.05;;
47053;SDS011;32811;52.382;5.270;2023-05-07T05:35:44;13.95;;;10.55;;
47053;SDS011;32811;52.382;5.270;2023-05-07T05:38:11;12.40;;;10.73;;
47053;SDS011;32811;52.382;5.270;2023-05-07T05:40:38;11.93;;;10.50;;
47053;SDS011;32811;52.382;5.270;2023-05-07T05:43:05;13.85;;;12.55;;
47053;SDS011;32811;52.382;5.270;2023-05-07T05:45:32;13.65;;;12.30;;
47053;SDS011;32811;52.382;5.270;2023-05-07T05:47:59;19.23;;;13.48;;
47053;SDS011;32811;52.382;5.270;2023-05-07T05:50:26;14.90;;;13.40;;
47053;SDS011;32811;52.382;5.270;2023-05-07T05:52:53;15.45;;;13.88;;
47053;SDS011;32811;52.382;5.270;2023-05-07T05:55:19;16.00;;;14.05;;
47053;SDS011;32811;52.382;5.270;2023-05-07T05:57:46;16.40;;;13.40;;
47053;SDS011;32811;52.382;5.270;2023-05-07T06:00:13;16.17;;;14.57;;
47053;SDS011;32811;52.382;5.270;2023-05-07T06:02:40;15.05;;;13.70;;
47053;SDS011;32811;52.382;5.270;2023-05-07T06:05:09;14.70;;;13.30;;
47053;SDS011;32811;52.382;5.270;2023-05-07T06:07:36;16.65;;;14.90;;
47053;SDS011;32811;52.382;5.270;2023-05-07T06:10:02;14.32;;;12.95;;
47053;SDS011;32811;52.382;5.270;2023-05-07T06:12:29;15.93;;;14.25;;
47053;SDS011;32811;52.382;5.270;2023-05-07T06:14:55;13.45;;;11.93;;
47053;SDS011;32811;52.382;5.270;2023-05-07T06:17:22;15.50;;;13.98;;
47053;SDS011;32811;52.382;5.270;2023-05-07T06:19:49;14.25;;;12.80;;
47053;SDS011;32811;52.382;5.270;2023-05-07T06:22:15;13.98;;;12.63;;
47053;SDS011;32811;52.382;5.270;2023-05-07T06:24:42;16.92;;;13.10;;
47053;SDS011;32811;52.382;5.270;2023-05-07T06:27:08;14.82;;;13.32;;
47053;SDS011;32811;52.382;5.270;2023-05-07T06:29:35;15.05;;;13.60;;
47053;SDS011;32811;52.382;5.270;2023-05-07T06:32:12;14.57;;;13.18;;
47053;SDS011;32811;52.382;5.270;2023-05-07T06:34:40;15.00;;;13.48;;
47053;SDS011;32811;52.382;5.270;2023-05-07T06:37:07;16.00;;;14.35;;
47053;SDS011;32811;52.382;5.270;2023-05-07T06:39:33;15.98;;;14.48;;
47053;SDS011;32811;52.382;5.270;2023-05-07T06:42:00;15.00;;;13.73;;
47053;SDS011;32811;52.382;5.270;2023-05-07T06:44:28;15.50;;;13.05;;
47053;SDS011;32811;52.382;5.270;2023-05-07T06:46:54;16.02;;;14.43;;
47053;SDS011;32811;52.382;5.270;2023-05-07T06:49:21;15.43;;;14.10;;
47053;SDS011;32811;52.382;5.270;2023-05-07T06:51:48;16.48;;;14.93;;
47053;SDS011;32811;52.382;5.270;2023-05-07T06:54:14;16.80;;;15.27;;
47053;SDS011;32811;52.382;5.270;2023-05-07T06:56:41;16.00;;;14.27;;
47053;SDS011;32811;52.382;5.270;2023-05-07T06:59:08;17.65;;;15.90;;
47053;SDS011;32811;52.382;5.270;2023-05-07T07:01:34;16.88;;;15.15;;
47053;SDS011;32811;52.382;5.270;2023-05-07T07:04:01;15.10;;;13.70;;
47053;SDS011;32811;52.382;5.270;2023-05-07T07:06:28;18.42;;;13.60;;
47053;SDS011;32811;52.382;5.270;2023-05-07T07:08:54;16.42;;;14.90;;
47053;SDS011;32811;52.382;5.270;2023-05-07T07:11:21;15.65;;;14.05;;
47053;SDS011;32811;52.382;5.270;2023-05-07T07:14:01;14.93;;;13.52;;
47053;SDS011;32811;52.382;5.270;2023-05-07T07:16:28;14.27;;;12.88;;
47053;SDS011;32811;52.382;5.270;2023-05-07T07:18:55;15.45;;;13.80;;
47053;SDS011;32811;52.382;5.270;2023-05-07T07:21:21;14.32;;;12.93;;
47053;SDS011;32811;52.382;5.270;2023-05-07T07:23:48;12.93;;;11.82;;
47053;SDS011;32811;52.382;5.270;2023-05-07T07:26:15;16.85;;;12.07;;
47053;SDS011;32811;52.382;5.270;2023-05-07T07:28:42;14.38;;;12.95;;
47053;SDS011;32811;52.382;5.270;2023-05-07T07:31:12;13.75;;;12.50;;
47053;SDS011;32811;52.382;5.270;2023-05-07T07:33:39;15.10;;;13.68;;
47053;SDS011;32811;52.382;5.270;2023-05-07T07:36:06;13.40;;;12.10;;
47053;SDS011;32811;52.382;5.270;2023-05-07T07:38:33;13.18;;;11.98;;
47053;SDS011;32811;52.382;5.270;2023-05-07T07:41:00;14.05;;;12.82;;
47053;SDS011;32811;52.382;5.270;2023-05-07T07:43:28;13.43;;;12.07;;
47053;SDS011;32811;52.382;5.270;2023-05-07T07:45:54;20.27;;;13.20;;
47053;SDS011;32811;52.382;5.270;2023-05-07T07:48:21;14.25;;;12.77;;
47053;SDS011;32811;52.382;5.270;2023-05-07T07:50:48;13.57;;;12.27;;
47053;SDS011;32811;52.382;5.270;2023-05-07T07:53:16;14.13;;;12.73;;
47053;SDS011;32811;52.382;5.270;2023-05-07T07:55:43;13.32;;;12.02;;
47053;SDS011;32811;52.382;5.270;2023-05-07T07:58:10;13.82;;;12.60;;
47053;SDS011;32811;52.382;5.270;2023-05-07T08:00:36;13.82;;;12.55;;
47053;SDS011;32811;52.382;5.270;2023-05-07T08:03:03;14.60;;;12.93;;
47053;SDS011;32811;52.382;5.270;2023-05-07T08:05:30;14.38;;;12.63;;
47053;SDS011;32811;52.382;5.270;2023-05-07T08:07:57;13.35;;;12.18;;
47053;SDS011;32811;52.382;5.270;2023-05-07T08:10:24;13.63;;;12.23;;
47053;SDS011;32811;52.382;5.270;2023-05-07T08:12:51;12.30;;;11.07;;
47053;SDS011;32811;52.382;5.270;2023-05-07T08:15:18;13.23;;;11.95;;
47053;SDS011;32811;52.382;5.270;2023-05-07T08:17:45;13.95;;;11.88;;
47053;SDS011;32811;52.382;5.270;2023-05-07T08:20:11;12.55;;;11.55;;
47053;SDS011;32811;52.382;5.270;2023-05-07T08:22:39;14.02;;;11.70;;
47053;SDS011;32811;52.382;5.270;2023-05-07T08:25:06;12.95;;;11.65;;
47053;SDS011;32811;52.382;5.270;2023-05-07T08:27:33;12.73;;;11.65;;
47053;SDS011;32811;52.382;5.270;2023-05-07T08:30:00;11.60;;;10.35;;
47053;SDS011;32811;52.382;5.270;2023-05-07T08:32:30;12.05;;;10.88;;
47053;SDS011;32811;52.382;5.270;2023-05-07T08:34:56;12.35;;;11.15;;
47053;SDS011;32811;52.382;5.270;2023-05-07T08:37:23;10.27;;;9.35;;
47053;SDS011;32811;52.382;5.270;2023-05-07T08:39:51;12.48;;;11.38;;
47053;SDS011;32811;52.382;5.270;2023-05-07T08:42:17;12.60;;;11.45;;
47053;SDS011;32811;52.382;5.270;2023-05-07T08:44:45;11.48;;;10.38;;
47053;SDS011;32811;52.382;5.270;2023-05-07T08:47:15;13.07;;;11.98;;
47053;SDS011;32811;52.382;5.270;2023-05-07T08:49:42;16.02;;;11.77;;
47053;SDS011;32811;52.382;5.270;2023-05-07T08:52:11;11.77;;;10.63;;
47053;SDS011;32811;52.382;5.270;2023-05-07T08:54:38;11.88;;;10.82;;
47053;SDS011;32811;52.382;5.270;2023-05-07T08:57:05;12.63;;;11.43;;
47053;SDS011;32811;52.382;5.270;2023-05-07T08:59:32;12.40;;;11.10;;
47053;SDS011;32811;52.382;5.270;2023-05-07T09:01:59;14.00;;;12.57;;
47053;SDS011;32811;52.382;5.270;2023-05-07T09:04:26;12.45;;;11.05;;
47053;SDS011;32811;52.382;5.270;2023-05-07T09:06:54;11.52;;;10.43;;
47053;SDS011;32811;52.382;5.270;2023-05-07T09:09:22;11.40;;;10.30;;
47053;SDS011;32811;52.382;5.270;2023-05-07T09:11:56;10.52;;;9.50;;
47053;SDS011;32811;52.382;5.270;2023-05-07T09:14:27;11.50;;;10.45;;
47053;SDS011;32811;52.382;5.270;2023-05-07T09:16:54;12.95;;;10.45;;
47053;SDS011;32811;52.382;5.270;2023-05-07T09:19:24;12.48;;;11.32;;
47053;SDS011;32811;52.382;5.270;2023-05-07T09:22:02;12.18;;;11.00;;
47053;SDS011;32811;52.382;5.270;2023-05-07T09:24:30;13.98;;;11.20;;
47053;SDS011;32811;52.382;5.270;2023-05-07T09:27:01;12.43;;;10.77;;
47053;SDS011;32811;52.382;5.270;2023-05-07T09:29:28;12.20;;;11.07;;
47053;SDS011;32811;52.382;5.270;2023-05-07T09:31:56;13.73;;;11.32;;
47053;SDS011;32811;52.382;5.270;2023-05-07T09:34:23;11.20;;;10.10;;
47053;SDS011;32811;52.382;5.270;2023-05-07T09:36:49;13.02;;;10.13;;
47053;SDS011;32811;52.382;5.270;2023-05-07T09:39:17;12.32;;;11.02;;
47053;SDS011;32811;52.382;5.270;2023-05-07T09:41:44;11.25;;;10.07;;
47053;SDS011;32811;52.382;5.270;2023-05-07T09:44:13;13.15;;;10.63;;
47053;SDS011;32811;52.382;5.270;2023-05-07T09:46:42;12.18;;;11.07;;
47053;SDS011;32811;52.382;5.270;2023-05-07T09:49:11;12.30;;;11.10;;
47053;SDS011;32811;52.382;5.270;2023-05-07T09:51:50;10.57;;;9.65;;
47053;SDS011;32811;52.382;5.270;2023-05-07T09:54:19;11.25;;;9.35;;
47053;SDS011;32811;52.382;5.270;2023-05-07T09:56:45;10.25;;;9.23;;
47053;SDS011;32811;52.382;5.270;2023-05-07T09:59:15;11.77;;;8.68;;
47053;SDS011;32811;52.382;5.270;2023-05-07T10:01:43;10.38;;;9.30;;
47053;SDS011;32811;52.382;5.270;2023-05-07T10:04:11;10.52;;;9.52;;
47053;SDS011;32811;52.382;5.270;2023-05-07T10:06:38;10.05;;;9.02;;
47053;SDS011;32811;52.382;5.270;2023-05-07T10:09:05;10.75;;;9.05;;
47053;SDS011;32811;52.382;5.270;2023-05-07T10:11:35;9.88;;;8.88;;
47053;SDS011;32811;52.382;5.270;2023-05-07T10:14:04;9.77;;;8.95;;
47053;SDS011;32811;52.382;5.270;2023-05-07T10:16:34;9.52;;;8.48;;
47053;SDS011;32811;52.382;5.270;2023-05-07T10:19:05;9.73;;;8.73;;
47053;SDS011;32811;52.382;5.270;2023-05-07T10:21:34;7.97;;;7.18;;
47053;SDS011;32811;52.382;5.270;2023-05-07T10:26:42;5.32;;;4.82;;
47053;SDS011;32811;52.382;5.270;2023-05-07T10:29:17;8.52;;;6.10;;
47053;SDS011;32811;52.382;5.270;2023-05-07T10:36:56;7.47;;;6.18;;
47053;SDS011;32811;52.382;5.270;2023-05-07T10:39:26;7.15;;;5.03;;
47053;SDS011;32811;52.382;5.270;2023-05-07T10:41:53;5.90;;;4.95;;
47053;SDS011;32811;52.382;5.270;2023-05-07T10:44:30;6.05;;;4.57;;
47053;SDS011;32811;52.382;5.270;2023-05-07T10:47:03;9.65;;;4.72;;
47053;SDS011;32811;52.382;5.270;2023-05-07T10:49:36;5.57;;;3.70;;
47053;SDS011;32811;52.382;5.270;2023-05-07T10:52:16;3.30;;;3.00;;
47053;SDS011;32811;52.382;5.270;2023-05-07T10:57:53;7.20;;;4.25;;
47053;SDS011;32811;52.382;5.270;2023-05-07T11:03:13;5.50;;;4.95;;
47053;SDS011;32811;52.382;5.270;2023-05-07T11:05:45;5.75;;;5.05;;
47053;SDS011;32811;52.382;5.270;2023-05-07T11:08:14;8.55;;;3.92;;
47053;SDS011;32811;52.382;5.270;2023-05-07T11:10:54;7.20;;;4.10;;
47053;SDS011;32811;52.382;5.270;2023-05-07T11:16:23;8.68;;;4.90;;
47053;SDS011;32811;52.382;5.270;2023-05-07T11:18:54;6.70;;;5.15;;
47053;SDS011;32811;52.382;5.270;2023-05-07T11:21:38;5.70;;;3.92;;
47053;SDS011;32811;52.382;5.270;2023-05-07T11:24:07;6.22;;;3.30;;
47053;SDS011;32811;52.382;5.270;2023-05-07T11:26:49;6.18;;;4.13;;
47053;SDS011;32811;52.382;5.270;2023-05-07T11:29:20;5.97;;;3.78;;
47053;SDS011;32811;52.382;5.270;2023-05-07T11:31:52;5.05;;;3.58;;
47053;SDS011;32811;52.382;5.270;2023-05-07T11:34:23;6.55;;;4.07;;
47053;SDS011;32811;52.382;5.270;2023-05-07T11:37:02;4.53;;;3.33;;
47053;SDS011;32811;52.382;5.270;2023-05-07T11:39:35;4.63;;;3.22;;
47053;SDS011;32811;52.382;5.270;2023-05-07T11:42:06;4.70;;;2.80;;
47053;SDS011;32811;52.382;5.270;2023-05-07T11:44:41;7.50;;;2.53;;
47053;SDS011;32811;52.382;5.270;2023-05-07T11:47:29;5.03;;;2.95;;
47053;SDS011;32811;52.382;5.270;2023-05-07T11:50:05;2.78;;;2.30;;
47053;SDS011;32811;52.382;5.270;2023-05-07T11:52:36;2.25;;;1.33;;
47053;SDS011;32811;52.382;5.270;2023-05-07T11:55:07;5.88;;;2.30;;
47053;SDS011;32811;52.382;5.270;2023-05-07T11:57:37;3.92;;;2.78;;
47053;SDS011;32811;52.382;5.270;2023-05-07T12:00:05;7.20;;;3.00;;
47053;SDS011;32811;52.382;5.270;2023-05-07T12:02:40;5.00;;;3.50;;
47053;SDS011;32811;52.382;5.270;2023-05-07T12:05:11;4.68;;;3.00;;
47053;SDS011;32811;52.382;5.270;2023-05-07T12:07:43;4.20;;;2.40;;
47053;SDS011;32811;52.382;5.270;2023-05-07T12:10:10;2.38;;;1.98;;
47053;SDS011;32811;52.382;5.270;2023-05-07T12:12:40;4.95;;;2.47;;
47053;SDS011;32811;52.382;5.270;2023-05-07T12:15:08;5.90;;;3.03;;
47053;SDS011;32811;52.382;5.270;2023-05-07T12:17:39;5.25;;;3.20;;
47053;SDS011;32811;52.382;5.270;2023-05-07T12:20:07;6.78;;;2.75;;
47053;SDS011;32811;52.382;5.270;2023-05-07T12:22:35;3.83;;;2.88;;
47053;SDS011;32811;52.382;5.270;2023-05-07T12:25:06;4.65;;;3.28;;
47053;SDS011;32811;52.382;5.270;2023-05-07T12:27:37;4.28;;;3.72;;
47053;SDS011;32811;52.382;5.270;2023-05-07T12:30:12;4.60;;;4.00;;
47053;SDS011;32811;52.382;5.270;2023-05-07T12:32:42;6.43;;;3.42;;
47053;SDS011;32811;52.382;5.270;2023-05-07T12:35:12;6.40;;;5.47;;
47053;SDS011;32811;52.382;5.270;2023-05-07T12:38:14;7.90;;;5.05;;
47053;SDS011;32811;52.382;5.270;2023-05-07T12:40:44;7.15;;;5.60;;
47053;SDS011;32811;52.382;5.270;2023-05-07T12:43:21;9.02;;;5.80;;
47053;SDS011;32811;52.382;5.270;2023-05-07T12:45:54;7.57;;;5.10;;
47053;SDS011;32811;52.382;5.270;2023-05-07T12:48:24;8.93;;;6.55;;
47053;SDS011;32811;52.382;5.270;2023-05-07T12:50:53;7.47;;;5.15;;
47053;SDS011;32811;52.382;5.270;2023-05-07T12:53:29;7.30;;;5.72;;
47053;SDS011;32811;52.382;5.270;2023-05-07T12:55:59;10.02;;;5.82;;
47053;SDS011;32811;52.382;5.270;2023-05-07T12:58:35;8.45;;;5.60;;
47053;SDS011;32811;52.382;5.270;2023-05-07T13:01:06;7.03;;;5.63;;
47053;SDS011;32811;52.382;5.270;2023-05-07T13:03:40;8.18;;;5.80;;
47053;SDS011;32811;52.382;5.270;2023-05-07T13:06:09;9.18;;;6.72;;
47053;SDS011;32811;52.382;5.270;2023-05-07T13:08:40;10.48;;;6.50;;
47053;SDS011;32811;52.382;5.270;2023-05-07T13:11:17;9.73;;;5.57;;
47053;SDS011;32811;52.382;5.270;2023-05-07T13:13:46;7.03;;;4.68;;
47053;SDS011;32811;52.382;5.270;2023-05-07T13:16:17;8.50;;;5.75;;
47053;SDS011;32811;52.382;5.270;2023-05-07T13:18:47;9.13;;;4.68;;
47053;SDS011;32811;52.382;5.270;2023-05-07T13:21:15;5.65;;;4.38;;
47053;SDS011;32811;52.382;5.270;2023-05-07T13:23:43;7.07;;;4.53;;
47053;SDS011;32811;52.382;5.270;2023-05-07T13:26:10;5.85;;;3.58;;
47053;SDS011;32811;52.382;5.270;2023-05-07T13:28:52;5.25;;;3.05;;
47053;SDS011;32811;52.382;5.270;2023-05-07T13:31:20;6.85;;;4.00;;
47053;SDS011;32811;52.382;5.270;2023-05-07T13:33:47;5.22;;;3.00;;
47053;SDS011;32811;52.382;5.270;2023-05-07T13:36:17;5.15;;;3.30;;
47053;SDS011;32811;52.382;5.270;2023-05-07T13:38:44;4.90;;;2.83;;
47053;SDS011;32811;52.382;5.270;2023-05-07T13:41:11;4.70;;;3.58;;
47053;SDS011;32811;52.382;5.270;2023-05-07T13:43:40;5.95;;;2.90;;
47053;SDS011;32811;52.382;5.270;2023-05-07T13:46:07;5.22;;;3.05;;
47053;SDS011;32811;52.382;5.270;2023-05-07T13:48:34;5.45;;;2.65;;
47053;SDS011;32811;52.382;5.270;2023-05-07T13:51:01;5.18;;;2.60;;
47053;SDS011;32811;52.382;5.270;2023-05-07T13:53:31;5.32;;;3.42;;
47053;SDS011;32811;52.382;5.270;2023-05-07T13:55:58;3.00;;;2.00;;
47053;SDS011;32811;52.382;5.270;2023-05-07T13:58:30;4.13;;;2.60;;
47053;SDS011;32811;52.382;5.270;2023-05-07T14:01:01;6.13;;;3.28;;
47053;SDS011;32811;52.382;5.270;2023-05-07T14:03:28;4.57;;;2.80;;
47053;SDS011;32811;52.382;5.270;2023-05-07T14:05:56;4.55;;;3.65;;
47053;SDS011;32811;52.382;5.270;2023-05-07T14:08:24;6.85;;;4.40;;
47053;SDS011;32811;52.382;5.270;2023-05-07T14:10:51;4.05;;;3.20;;
47053;SDS011;32811;52.382;5.270;2023-05-07T14:13:18;5.07;;;3.53;;
47053;SDS011;32811;52.382;5.270;2023-05-07T14:15:45;6.60;;;3.42;;
47053;SDS011;32811;52.382;5.270;2023-05-07T14:18:13;4.57;;;2.70;;
47053;SDS011;32811;52.382;5.270;2023-05-07T14:20:39;3.28;;;2.72;;
47053;SDS011;32811;52.382;5.270;2023-05-07T14:23:06;4.15;;;2.60;;
47053;SDS011;32811;52.382;5.270;2023-05-07T14:25:32;6.85;;;3.13;;
47053;SDS011;32811;52.382;5.270;2023-05-07T14:27:59;4.10;;;3.22;;
47053;SDS011;32811;52.382;5.270;2023-05-07T14:30:25;7.05;;;4.22;;
47053;SDS011;32811;52.382;5.270;2023-05-07T14:32:52;5.05;;;4.15;;
47053;SDS011;32811;52.382;5.270;2023-05-07T14:35:21;5.47;;;4.15;;
47053;SDS011;32811;52.382;5.270;2023-05-07T14:37:48;6.35;;;4.53;;
47053;SDS011;32811;52.382;5.270;2023-05-07T14:40:14;8.45;;;5.32;;
47053;SDS011;32811;52.382;5.270;2023-05-07T14:42:41;6.72;;;5.28;;
47053;SDS011;32811;52.382;5.270;2023-05-07T14:45:10;9.20;;;5.65;;
47053;SDS011;32811;52.382;5.270;2023-05-07T14:51:02;5.80;;;5.13;;
47053;SDS011;32811;52.382;5.270;2023-05-07T14:53:29;6.35;;;4.72;;
47053;SDS011;32811;52.382;5.270;2023-05-07T14:55:57;9.00;;;7.00;;
47053;SDS011;32811;52.382;5.270;2023-05-07T14:58:24;8.35;;;7.00;;
47053;SDS011;32811;52.382;5.270;2023-05-07T15:00:51;8.65;;;6.80;;
47053;SDS011;32811;52.382;5.270;2023-05-07T15:03:17;7.82;;;6.88;;
47053;SDS011;32811;52.382;5.270;2023-05-07T15:05:44;10.27;;;6.28;;
47053;SDS011;32811;52.382;5.270;2023-05-07T15:08:11;7.38;;;5.63;;
47053;SDS011;32811;52.382;5.270;2023-05-07T15:10:38;7.28;;;5.57;;